Terminal Aerodrome Forecast
Issued by NWS

Home | Current Version | Previous Version | Text Only | Print | Product List | Glossary On
Versions: 1 2 3 4 5 6 7 8 9 10 11 12 13 14 15
000
FTUS43 KBIS 211139
TAFJMS
TAF
KJMS 211139Z 2112/2212 26013KT P6SM SCT150 SCT200 WS020/29030KT
     FM211500 28017G26KT P6SM VCSH BKN070 BKN120
     FM220200 27011KT P6SM SCT050 SCT080 WS020/29035KT
     FM220800 26008KT P6SM SKC=

USA.gov is the U.S. government's official web portal to all federal, state and local government web resources and services.